Moby Aki — IBVV — position and weather

sailwx.info

Track history (hours):
 
Tides and Currents Weather Stations Pressure Air Temp Water Temp Dewpoint Dewpoint Depression Visibility Wind Speed Wind Dir Waves Ship Positions

Moby Aki

Last reported at 2017-Aug-16 12:29 UTC. Time now 2017-Aug-16 13:19 UTC.
Position N 40°56' E 009°36'.

Length 175 m; draft 6.9 m.

Type: Ship. MMSI: 247132400.

Date/timePositionNaut miles runAvg speedWind from/ knotsBaromVisibWave heightAir tempDewpointWater temp
2017-Aug-16 12:29N 40°56' E 009°36'1424.9
2017-Aug-16 11:56N 41°08' E 009°44'1227.3
2017-Aug-16 11:30N 41°20' E 009°45'4527.6
2017-Aug-16 09:52N 42°05' E 009°53'1027.5
2017-Aug-16 09:30N 42°15' E 009°54'1427.8
2017-Aug-16 09:00N 42°29' E 009°57'1427.5
2017-Aug-16 08:30N 42°43' E 010°00'1327.5
2017-Aug-16 08:01N 42°56' E 010°05'1427.8
2017-Aug-16 07:31N 43°09' E 010°09'1427.6
2017-Aug-16 07:00N 43°23' E 010°12'1020.3
2017-Aug-16 06:30N 43°32' E 010°17'1 2.0
2017-Aug-16 05:59N 43°33' E 010°18'0 0.0
2017-Aug-16 05:29N 43°33' E 010°18'0 0.0
2017-Aug-16 05:01N 43°33' E 010°18'0 0.0
2017-Aug-16 04:30N 43°33' E 010°18'1 2.7
2017-Aug-16 04:00N 43°32' E 010°17'611.6
2017-Aug-16 03:30N 43°27' E 010°12'1121.1
2017-Aug-16 03:00N 43°17' E 010°07'1121.7
2017-Aug-16 02:30N 43°07' E 010°04'1121.0
2017-Aug-16 01:59N 42°56' E 010°02'1321.3
2017-Aug-16 01:21N 42°43' E 009°59'821.7
2017-Aug-16 00:59N 42°35' E 009°58'1021.7
2017-Aug-16 00:30N 42°25' E 009°56'1122.0
2017-Aug-16 00:00N 42°13' E 009°55'3521.9
2017-Aug-15 22:23N 41°38' E 009°47'821.9
2017-Aug-15 22:00N 41°30' E 009°46'1121.9
2017-Aug-15 21:30N 41°19' E 009°44'1322.3
2017-Aug-15 20:56N 41°07' E 009°43'1120.6
2017-Aug-15 20:23N 40°56' E 009°37'12 1.4
2017-Aug-15 12:15N 41°07' E 009°43'6425.4
2017-Aug-15 09:44N 42°10' E 009°54'625.1
2017-Aug-15 09:30N 42°16' E 009°55'1325.1
2017-Aug-15 09:00N 42°28' E 009°57'1325.2
2017-Aug-15 08:31N 42°41' E 009°60'1325.4
2017-Aug-15 08:01N 42°53' E 010°04'1325.4
2017-Aug-15 07:31N 43°06' E 010°08'1325.2
2017-Aug-15 07:01N 43°18' E 010°11'1225.0
2017-Aug-15 06:31N 43°30' E 010°13'4 8.2
2017-Aug-15 05:58N 43°33' E 010°18'0 0.0
2017-Aug-15 05:30N 43°33' E 010°18'0 0.0
2017-Aug-15 05:00N 43°33' E 010°18'0 0.0
2017-Aug-15 04:30N 43°33' E 010°18'2 3.5
2017-Aug-15 04:00N 43°32' E 010°16'917.3
2017-Aug-15 03:30N 43°24' E 010°13'1223.7
2017-Aug-15 03:01N 43°12' E 010°09'1223.6
2017-Aug-15 02:31N 43°01' E 010°05'1122.8
2017-Aug-15 02:01N 42°50' E 010°01'1122.5
2017-Aug-15 01:31N 42°39' E 009°58'1122.6
2017-Aug-15 01:01N 42°27' E 009°56'1122.7
2017-Aug-15 00:30N 42°16' E 009°54'1122.7
2017-Aug-15 00:00N 42°05' E 009°52'3422.8
2017-Aug-14 22:30N 41°31' E 009°46'1122.9
2017-Aug-14 22:01N 41°20' E 009°45'1223.2
2017-Aug-14 21:31N 41°08' E 009°43'26 5.0
2017-Aug-14 16:18N 41°33' E 009°53'724.4
2017-Aug-14 16:00N 41°40' E 009°56'4124.8
2017-Aug-14 14:21N 42°20' E 010°10'2824.3
2017-Aug-14 13:12N 42°43' E 010°30'524.5
2017-Aug-14 13:01N 42°47' E 010°32'9 5.9
2017-Aug-14 11:33N 42°56' E 010°33'0 2.9
2017-Aug-14 11:30N 42°56' E 010°33'1121.2
2017-Aug-14 11:00N 42°46' E 010°31'2826.3
2017-Aug-14 09:57N 42°22' E 010°11'17 1.8
2017-Aug-14 00:20N 42°36' E 009°57'826.1
2017-Aug-14 00:00N 42°44' E 009°58'1726.3
2017-Aug-13 23:22N 43°00' E 010°03'1026.6
2017-Aug-13 23:00N 43°10' E 010°06'1326.5
2017-Aug-13 22:31N 43°23' E 010°10'1121.1
2017-Aug-13 22:01N 43°32' E 010°17'1 2.8
2017-Aug-13 21:30N 43°33' E 010°18'0 0.0
2017-Aug-13 20:59N 43°33' E 010°18'0 0.0
2017-Aug-13 20:30N 43°33' E 010°18'4 7.8
2017-Aug-13 20:01N 43°30' E 010°14'1326.0
2017-Aug-13 19:30N 43°18' E 010°10'1326.5
2017-Aug-13 19:01N 43°05' E 010°06'1325.9
2017-Aug-13 18:30N 42°52' E 010°03'1325.8
2017-Aug-13 18:01N 42°39' E 009°59'1726.5
2017-Aug-13 17:22N 42°22' E 009°56'926.7
2017-Aug-13 17:00N 42°13' E 009°54'1326.6
2017-Aug-13 16:30N 42°00' E 009°51'1726.4
2017-Aug-13 15:51N 41°43' E 009°47'926.4
2017-Aug-13 15:30N 41°34' E 009°47'1326.4
2017-Aug-13 15:00N 41°21' E 009°46'44 8.2
2017-Aug-13 09:37N 42°05' E 009°53'326.7
2017-Aug-13 09:30N 42°07' E 009°53'1326.6
2017-Aug-13 09:01N 42°21' E 009°55'1326.6
2017-Aug-13 08:30N 42°34' E 009°58'1326.7
2017-Aug-13 08:00N 42°47' E 010°02'1326.8
2017-Aug-13 07:30N 42°60' E 010°05'1326.8
2017-Aug-13 07:01N 43°13' E 010°09'1326.7
2017-Aug-13 06:31N 43°26' E 010°12'815.9
2017-Aug-13 06:00N 43°33' E 010°18'0 0.3
2017-Aug-13 05:30N 43°33' E 010°18'0 0.0
2017-Aug-13 05:00N 43°33' E 010°18'0 0.0
2017-Aug-13 04:30N 43°33' E 010°18'0 0.3
2017-Aug-13 04:00N 43°33' E 010°18'4 8.6
2017-Aug-13 03:30N 43°30' E 010°13'1121.9
2017-Aug-13 03:01N 43°20' E 010°07'1224.7
2017-Aug-13 02:31N 43°08' E 010°05'1224.4
2017-Aug-13 02:01N 42°57' E 009°59'1224.8
2017-Aug-13 01:31N 42°45' E 009°53'25 2.4
2017-Aug-12 15:00N 42°24' E 010°12'1526.3
2017-Aug-12 14:26N 42°36' E 010°23'27 2.0
2017-Aug-12 00:54N 42°55' E 009°58'1025.5
2017-Aug-12 00:31N 43°05' E 010°02'1224.8
2017-Aug-12 00:01N 43°17' E 010°07'1224.5
2017-Aug-11 23:31N 43°28' E 010°11'713.2
2017-Aug-11 23:00N 43°33' E 010°18'0 0.0
2017-Aug-11 22:29N 43°33' E 010°18'0 0.0
2017-Aug-11 21:59N 43°33' E 010°18'0 0.0
2017-Aug-11 21:29N 43°33' E 010°18'1 2.5
2017-Aug-11 21:00N 43°32' E 010°17'1019.8
2017-Aug-11 20:30N 43°24' E 010°10'1325.3
2017-Aug-11 20:01N 43°12' E 010°04'18 1.5
2017-Aug-11 08:07N 42°54' E 009°59'526.7
2017-Aug-11 07:57N 42°59' E 010°00'1126.1
2017-Aug-11 07:30N 43°10' E 010°05'1224.6
2017-Aug-11 07:01N 43°22' E 010°10'1122.5
2017-Aug-11 06:30N 43°32' E 010°16'2 3.4
2017-Aug-11 05:58N 43°33' E 010°18'0 0.0
2017-Aug-11 05:25N 43°33' E 010°18'0 0.0
2017-Aug-11 04:58N 43°33' E 010°18'0 0.0
2017-Aug-11 04:28N 43°33' E 010°18'2 5.1
2017-Aug-11 04:00N 43°32' E 010°16'611.1
2017-Aug-11 03:31N 43°28' E 010°10'917.1
2017-Aug-11 03:00N 43°20' E 010°04'1224.1
2017-Aug-11 02:30N 43°09' E 010°00'1924.0
2017-Aug-11 01:42N 42°51' E 009°50'37 3.3
2017-Aug-10 14:32N 42°16' E 010°09'226.4
2017-Aug-10 14:28N 42°18' E 010°09'2626.2
2017-Aug-10 13:29N 42°40' E 010°28'1326.0
2017-Aug-10 12:58N 42°53' E 010°34'3 2.6
2017-Aug-10 11:37N 42°56' E 010°33'1 9.3
2017-Aug-10 11:30N 42°55' E 010°34'1224.5
2017-Aug-10 11:01N 42°43' E 010°31'1726.2
2017-Aug-10 10:21N 42°29' E 010°18'16 1.7
2017-Aug-10 00:58N 42°25' E 009°56'1226.3
2017-Aug-10 00:30N 42°37' E 009°58'1326.3
2017-Aug-10 00:00N 42°50' E 010°01'1326.3
2017-Aug-09 23:30N 43°03' E 010°04'1326.7
2017-Aug-09 23:01N 43°16' E 010°08'1326.4
2017-Aug-09 22:31N 43°29' E 010°12'612.2
2017-Aug-09 22:00N 43°33' E 010°18'0 0.0
2017-Aug-09 21:30N 43°33' E 010°18'0 0.0
2017-Aug-09 21:00N 43°33' E 010°18'0 0.0
2017-Aug-09 20:28N 43°33' E 010°18'3 6.6
2017-Aug-09 20:01N 43°31' E 010°15'1224.8
2017-Aug-09 19:31N 43°19' E 010°10'1326.6
2017-Aug-09 19:00N 43°06' E 010°06'1426.3
2017-Aug-09 18:28N 42°52' E 010°02'1226.5
2017-Aug-09 18:00N 42°40' E 009°59'2326.7
2017-Aug-09 17:08N 42°17' E 009°55'45 4.6
2017-Aug-09 07:24N 43°01' E 010°06'1026.7
2017-Aug-09 07:01N 43°12' E 010°09'1326.6
2017-Aug-09 06:30N 43°25' E 010°12'918.1
2017-Aug-09 06:00N 43°33' E 010°17'1 1.1
2017-Aug-09 05:30N 43°33' E 010°18'0 0.0
2017-Aug-09 05:00N 43°33' E 010°18'0 0.0
2017-Aug-09 04:30N 43°33' E 010°18'0 0.0
2017-Aug-09 04:00N 43°33' E 010°18'4 8.2
2017-Aug-09 03:30N 43°30' E 010°14'918.3
2017-Aug-09 03:00N 43°21' E 010°10'1121.9
2017-Aug-09 02:30N 43°11' E 010°05'6622.2
2017-Aug-08 23:32N 42°06' E 009°53'222.8
2017-Aug-08 23:26N 42°04' E 009°53'1222.8
2017-Aug-08 22:55N 41°52' E 009°51'922.6
2017-Aug-08 22:30N 41°43' E 009°49'1122.5
2017-Aug-08 22:01N 41°32' E 009°47'1122.2
2017-Aug-08 21:30N 41°20' E 009°45'1722.3
2017-Aug-08 20:45N 41°04' E 009°42'623.3
2017-Aug-08 20:31N 40°58' E 009°41'0 0.0
2017-Aug-08 12:39N 40°58' E 009°40'1124.4
2017-Aug-08 12:13N 41°09' E 009°44'7325.4
2017-Aug-08 09:20N 42°21' E 009°55'825.3
2017-Aug-08 09:00N 42°29' E 009°57'1325.2
2017-Aug-08 08:31N 42°42' E 010°00'1725.3
2017-Aug-08 07:49N 42°59' E 010°05'825.7
2017-Aug-08 07:31N 43°07' E 010°07'1325.6
2017-Aug-08 07:00N 43°19' E 010°10'1224.8
2017-Aug-08 06:31N 43°31' E 010°14'3 6.9
2017-Aug-08 06:00N 43°33' E 010°18'0 0.0
2017-Aug-08 05:30N 43°33' E 010°18'0 0.0
2017-Aug-08 05:00N 43°33' E 010°18'0 0.0
2017-Aug-08 04:30N 43°33' E 010°18'0 0.7
2017-Aug-08 04:00N 43°33' E 010°17'4 8.1
2017-Aug-08 03:31N 43°30' E 010°14'1020.6
2017-Aug-08 03:00N 43°20' E 010°10'1122.3
2017-Aug-08 02:30N 43°09' E 010°07'1122.9
2017-Aug-08 02:00N 42°58' E 010°03'1223.5
2017-Aug-08 01:30N 42°46' E 009°60'1723.9
2017-Aug-08 00:46N 42°29' E 009°56'1124.9
2017-Aug-08 00:19N 42°18' E 009°54'2925.0
2017-Aug-07 23:08N 41°49' E 009°49'2124.8
2017-Aug-07 22:17N 41°28' E 009°46'724.4
2017-Aug-07 22:01N 41°21' E 009°45'1724.0
2017-Aug-07 21:18N 41°04' E 009°43'10 3.2
2017-Aug-07 18:00N 40°55' E 009°35'1122.1
2017-Aug-07 17:30N 41°04' E 009°44'6726.5
2017-Aug-07 14:59N 42°09' E 010°06'1626.3
2017-Aug-07 14:23N 42°24' E 010°12'1026.6
2017-Aug-07 14:00N 42°32' E 010°20'1326.3
2017-Aug-07 13:30N 42°43' E 010°30'1325.5
2017-Aug-07 12:59N 42°56' E 010°34'1 1.5
2017-Aug-07 12:30N 42°56' E 010°33'0 0.0
2017-Aug-07 11:52N 42°56' E 010°33'1 2.6
2017-Aug-07 11:31N 42°55' E 010°34'1224.3
2017-Aug-07 11:01N 42°43' E 010°30'1426.6
2017-Aug-07 10:30N 42°32' E 010°20'1326.5
2017-Aug-07 10:00N 42°21' E 010°10'8915.7
2017-Aug-07 04:21N 40°56' E 009°37'1223.1
2017-Aug-07 03:51N 41°07' E 009°43'6426.6
2017-Aug-07 01:26N 42°10' E 009°53'2826.7
2017-Aug-07 00:24N 42°38' E 009°58'1026.6
2017-Aug-07 00:00N 42°48' E 010°00'1326.5
2017-Aug-06 23:31N 43°01' E 010°04'1326.7
2017-Aug-06 23:01N 43°14' E 010°07'1326.6
2017-Aug-06 22:31N 43°27' E 010°11'815.1
2017-Aug-06 22:01N 43°33' E 010°17'0 0.8
2017-Aug-06 21:29N 43°33' E 010°18'0 0.0
2017-Aug-06 20:58N 43°33' E 010°18'0 0.1
2017-Aug-06 20:31N 43°33' E 010°18'611.3
2017-Aug-06 20:01N 43°29' E 010°13'1326.3
2017-Aug-06 19:30N 43°16' E 010°09'1326.4
2017-Aug-06 19:01N 43°03' E 010°06'1326.5
2017-Aug-06 18:31N 42°50' E 010°02'1326.6
2017-Aug-06 18:01N 42°37' E 009°58'1326.6
2017-Aug-06 17:30N 42°24' E 009°56'1426.7
2017-Aug-06 16:59N 42°10' E 009°54'1326.6
2017-Aug-06 16:30N 41°57' E 009°52'1926.6
2017-Aug-06 15:48N 41°39' E 009°49'2126.3
2017-Aug-06 14:59N 41°17' E 009°45'1326.2
2017-Aug-06 14:30N 41°05' E 009°43'  
Track history (hours):
 
Tides and Currents Weather Stations Pressure Air Temp Water Temp Dewpoint Dewpoint Depression Visibility Wind Speed Wind Dir Waves Ship Positions

Moby Aki

Last reported at 2017-Aug-16 12:29 UTC. Time now 2017-Aug-16 13:19 UTC.
Position N 40°56' E 009°36'.

Length 175 m; draft 6.9 m.

Type: Ship. MMSI: 247132400.

Date/timePositionNaut miles runAvg speedWind from/ knotsBaromVisibWave heightAir tempDewpointWater temp
2017-Aug-16 12:29N 40°56' E 009°36'1424.9
2017-Aug-16 11:56N 41°08' E 009°44'1227.3
2017-Aug-16 11:30N 41°20' E 009°45'4527.6
2017-Aug-16 09:52N 42°05' E 009°53'1027.5
2017-Aug-16 09:30N 42°15' E 009°54'1427.8
2017-Aug-16 09:00N 42°29' E 009°57'1427.5
2017-Aug-16 08:30N 42°43' E 010°00'1327.5
2017-Aug-16 08:01N 42°56' E 010°05'1427.8
2017-Aug-16 07:31N 43°09' E 010°09'1427.6
2017-Aug-16 07:00N 43°23' E 010°12'1020.3
2017-Aug-16 06:30N 43°32' E 010°17'1 2.0
2017-Aug-16 05:59N 43°33' E 010°18'0 0.0
2017-Aug-16 05:29N 43°33' E 010°18'0 0.0
2017-Aug-16 05:01N 43°33' E 010°18'0 0.0
2017-Aug-16 04:30N 43°33' E 010°18'1 2.7
2017-Aug-16 04:00N 43°32' E 010°17'611.6
2017-Aug-16 03:30N 43°27' E 010°12'1121.1
2017-Aug-16 03:00N 43°17' E 010°07'1121.7
2017-Aug-16 02:30N 43°07' E 010°04'1121.0
2017-Aug-16 01:59N 42°56' E 010°02'1321.3
2017-Aug-16 01:21N 42°43' E 009°59'821.7
2017-Aug-16 00:59N 42°35' E 009°58'1021.7
2017-Aug-16 00:30N 42°25' E 009°56'1122.0
2017-Aug-16 00:00N 42°13' E 009°55'3521.9
2017-Aug-15 22:23N 41°38' E 009°47'821.9
2017-Aug-15 22:00N 41°30' E 009°46'1121.9
2017-Aug-15 21:30N 41°19' E 009°44'1322.3
2017-Aug-15 20:56N 41°07' E 009°43'1120.6
2017-Aug-15 20:23N 40°56' E 009°37'12 1.4
2017-Aug-15 12:15N 41°07' E 009°43'6425.4
2017-Aug-15 09:44N 42°10' E 009°54'625.1
2017-Aug-15 09:30N 42°16' E 009°55'1325.1
2017-Aug-15 09:00N 42°28' E 009°57'1325.2
2017-Aug-15 08:31N 42°41' E 009°60'1325.4
2017-Aug-15 08:01N 42°53' E 010°04'1325.4
2017-Aug-15 07:31N 43°06' E 010°08'1325.2
2017-Aug-15 07:01N 43°18' E 010°11'1225.0
2017-Aug-15 06:31N 43°30' E 010°13'4 8.2
2017-Aug-15 05:58N 43°33' E 010°18'0 0.0
2017-Aug-15 05:30N 43°33' E 010°18'0 0.0
2017-Aug-15 05:00N 43°33' E 010°18'0 0.0
2017-Aug-15 04:30N 43°33' E 010°18'2 3.5
2017-Aug-15 04:00N 43°32' E 010°16'917.3
2017-Aug-15 03:30N 43°24' E 010°13'1223.7
2017-Aug-15 03:01N 43°12' E 010°09'1223.6
2017-Aug-15 02:31N 43°01' E 010°05'1122.8
2017-Aug-15 02:01N 42°50' E 010°01'1122.5
2017-Aug-15 01:31N 42°39' E 009°58'1122.6
2017-Aug-15 01:01N 42°27' E 009°56'1122.7
2017-Aug-15 00:30N 42°16' E 009°54'1122.7
2017-Aug-15 00:00N 42°05' E 009°52'3422.8
2017-Aug-14 22:30N 41°31' E 009°46'1122.9
2017-Aug-14 22:01N 41°20' E 009°45'1223.2
2017-Aug-14 21:31N 41°08' E 009°43'26 5.0
2017-Aug-14 16:18N 41°33' E 009°53'724.4
2017-Aug-14 16:00N 41°40' E 009°56'4124.8
2017-Aug-14 14:21N 42°20' E 010°10'2824.3
2017-Aug-14 13:12N 42°43' E 010°30'524.5
2017-Aug-14 13:01N 42°47' E 010°32'9 5.9
2017-Aug-14 11:33N 42°56' E 010°33'0 2.9
2017-Aug-14 11:30N 42°56' E 010°33'1121.2
2017-Aug-14 11:00N 42°46' E 010°31'2826.3
2017-Aug-14 09:57N 42°22' E 010°11'17 1.8
2017-Aug-14 00:20N 42°36' E 009°57'826.1
2017-Aug-14 00:00N 42°44' E 009°58'1726.3
2017-Aug-13 23:22N 43°00' E 010°03'1026.6
2017-Aug-13 23:00N 43°10' E 010°06'1326.5
2017-Aug-13 22:31N 43°23' E 010°10'1121.1
2017-Aug-13 22:01N 43°32' E 010°17'1 2.8
2017-Aug-13 21:30N 43°33' E 010°18'0 0.0
2017-Aug-13 20:59N 43°33' E 010°18'0 0.0
2017-Aug-13 20:30N 43°33' E 010°18'4 7.8
2017-Aug-13 20:01N 43°30' E 010°14'1326.0
2017-Aug-13 19:30N 43°18' E 010°10'1326.5
2017-Aug-13 19:01N 43°05' E 010°06'1325.9
2017-Aug-13 18:30N 42°52' E 010°03'1325.8
2017-Aug-13 18:01N 42°39' E 009°59'1726.5
2017-Aug-13 17:22N 42°22' E 009°56'926.7
2017-Aug-13 17:00N 42°13' E 009°54'1326.6
2017-Aug-13 16:30N 42°00' E 009°51'1726.4
2017-Aug-13 15:51N 41°43' E 009°47'926.4
2017-Aug-13 15:30N 41°34' E 009°47'1326.4
2017-Aug-13 15:00N 41°21' E 009°46'44 8.2
2017-Aug-13 09:37N 42°05' E 009°53'326.7
2017-Aug-13 09:30N 42°07' E 009°53'1326.6
2017-Aug-13 09:01N 42°21' E 009°55'1326.6
2017-Aug-13 08:30N 42°34' E 009°58'1326.7
2017-Aug-13 08:00N 42°47' E 010°02'1326.8
2017-Aug-13 07:30N 42°60' E 010°05'1326.8
2017-Aug-13 07:01N 43°13' E 010°09'1326.7
2017-Aug-13 06:31N 43°26' E 010°12'815.9
2017-Aug-13 06:00N 43°33' E 010°18'0 0.3
2017-Aug-13 05:30N 43°33' E 010°18'0 0.0
2017-Aug-13 05:00N 43°33' E 010°18'0 0.0
2017-Aug-13 04:30N 43°33' E 010°18'0 0.3
2017-Aug-13 04:00N 43°33' E 010°18'4 8.6
2017-Aug-13 03:30N 43°30' E 010°13'1121.9
2017-Aug-13 03:01N 43°20' E 010°07'1224.7
2017-Aug-13 02:31N 43°08' E 010°05'1224.4
2017-Aug-13 02:01N 42°57' E 009°59'1224.8
2017-Aug-13 01:31N 42°45' E 009°53'25 2.4
2017-Aug-12 15:00N 42°24' E 010°12'1526.3
2017-Aug-12 14:26N 42°36' E 010°23'27 2.0
2017-Aug-12 00:54N 42°55' E 009°58'1025.5
2017-Aug-12 00:31N 43°05' E 010°02'1224.8
2017-Aug-12 00:01N 43°17' E 010°07'1224.5
2017-Aug-11 23:31N 43°28' E 010°11'713.2
2017-Aug-11 23:00N 43°33' E 010°18'0 0.0
2017-Aug-11 22:29N 43°33' E 010°18'0 0.0
2017-Aug-11 21:59N 43°33' E 010°18'0 0.0
2017-Aug-11 21:29N 43°33' E 010°18'1 2.5
2017-Aug-11 21:00N 43°32' E 010°17'1019.8
2017-Aug-11 20:30N 43°24' E 010°10'1325.3
2017-Aug-11 20:01N 43°12' E 010°04'18 1.5
2017-Aug-11 08:07N 42°54' E 009°59'526.7
2017-Aug-11 07:57N 42°59' E 010°00'1126.1
2017-Aug-11 07:30N 43°10' E 010°05'1224.6
2017-Aug-11 07:01N 43°22' E 010°10'1122.5
2017-Aug-11 06:30N 43°32' E 010°16'2 3.4
2017-Aug-11 05:58N 43°33' E 010°18'0 0.0
2017-Aug-11 05:25N 43°33' E 010°18'0 0.0
2017-Aug-11 04:58N 43°33' E 010°18'0 0.0
2017-Aug-11 04:28N 43°33' E 010°18'2 5.1
2017-Aug-11 04:00N 43°32' E 010°16'611.1
2017-Aug-11 03:31N 43°28' E 010°10'917.1
2017-Aug-11 03:00N 43°20' E 010°04'1224.1
2017-Aug-11 02:30N 43°09' E 010°00'1924.0
2017-Aug-11 01:42N 42°51' E 009°50'37 3.3
2017-Aug-10 14:32N 42°16' E 010°09'226.4
2017-Aug-10 14:28N 42°18' E 010°09'2626.2
2017-Aug-10 13:29N 42°40' E 010°28'1326.0
2017-Aug-10 12:58N 42°53' E 010°34'3 2.6
2017-Aug-10 11:37N 42°56' E 010°33'1 9.3
2017-Aug-10 11:30N 42°55' E 010°34'1224.5
2017-Aug-10 11:01N 42°43' E 010°31'1726.2
2017-Aug-10 10:21N 42°29' E 010°18'16 1.7
2017-Aug-10 00:58N 42°25' E 009°56'1226.3
2017-Aug-10 00:30N 42°37' E 009°58'1326.3
2017-Aug-10 00:00N 42°50' E 010°01'1326.3
2017-Aug-09 23:30N 43°03' E 010°04'1326.7
2017-Aug-09 23:01N 43°16' E 010°08'1326.4
2017-Aug-09 22:31N 43°29' E 010°12'612.2
2017-Aug-09 22:00N 43°33' E 010°18'0 0.0
2017-Aug-09 21:30N 43°33' E 010°18'0 0.0
2017-Aug-09 21:00N 43°33' E 010°18'0 0.0
2017-Aug-09 20:28N 43°33' E 010°18'3 6.6
2017-Aug-09 20:01N 43°31' E 010°15'1224.8
2017-Aug-09 19:31N 43°19' E 010°10'1326.6
2017-Aug-09 19:00N 43°06' E 010°06'1426.3
2017-Aug-09 18:28N 42°52' E 010°02'1226.5
2017-Aug-09 18:00N 42°40' E 009°59'2326.7
2017-Aug-09 17:08N 42°17' E 009°55'45 4.6
2017-Aug-09 07:24N 43°01' E 010°06'1026.7
2017-Aug-09 07:01N 43°12' E 010°09'1326.6
2017-Aug-09 06:30N 43°25' E 010°12'918.1
2017-Aug-09 06:00N 43°33' E 010°17'1 1.1
2017-Aug-09 05:30N 43°33' E 010°18'0 0.0
2017-Aug-09 05:00N 43°33' E 010°18'0 0.0
2017-Aug-09 04:30N 43°33' E 010°18'0 0.0
2017-Aug-09 04:00N 43°33' E 010°18'4 8.2
2017-Aug-09 03:30N 43°30' E 010°14'918.3
2017-Aug-09 03:00N 43°21' E 010°10'1121.9
2017-Aug-09 02:30N 43°11' E 010°05'6622.2
2017-Aug-08 23:32N 42°06' E 009°53'222.8
2017-Aug-08 23:26N 42°04' E 009°53'1222.8
2017-Aug-08 22:55N 41°52' E 009°51'922.6
2017-Aug-08 22:30N 41°43' E 009°49'1122.5
2017-Aug-08 22:01N 41°32' E 009°47'1122.2
2017-Aug-08 21:30N 41°20' E 009°45'1722.3
2017-Aug-08 20:45N 41°04' E 009°42'623.3
2017-Aug-08 20:31N 40°58' E 009°41'0 0.0
2017-Aug-08 12:39N 40°58' E 009°40'1124.4
2017-Aug-08 12:13N 41°09' E 009°44'7325.4
2017-Aug-08 09:20N 42°21' E 009°55'825.3
2017-Aug-08 09:00N 42°29' E 009°57'1325.2
2017-Aug-08 08:31N 42°42' E 010°00'1725.3
2017-Aug-08 07:49N 42°59' E 010°05'825.7
2017-Aug-08 07:31N 43°07' E 010°07'1325.6
2017-Aug-08 07:00N 43°19' E 010°10'1224.8
2017-Aug-08 06:31N 43°31' E 010°14'3 6.9
2017-Aug-08 06:00N 43°33' E 010°18'0 0.0
2017-Aug-08 05:30N 43°33' E 010°18'0 0.0
2017-Aug-08 05:00N 43°33' E 010°18'0 0.0
2017-Aug-08 04:30N 43°33' E 010°18'0 0.7
2017-Aug-08 04:00N 43°33' E 010°17'4 8.1
2017-Aug-08 03:31N 43°30' E 010°14'1020.6
2017-Aug-08 03:00N 43°20' E 010°10'1122.3
2017-Aug-08 02:30N 43°09' E 010°07'1122.9
2017-Aug-08 02:00N 42°58' E 010°03'1223.5
2017-Aug-08 01:30N 42°46' E 009°60'1723.9
2017-Aug-08 00:46N 42°29' E 009°56'1124.9
2017-Aug-08 00:19N 42°18' E 009°54'2925.0
2017-Aug-07 23:08N 41°49' E 009°49'2124.8
2017-Aug-07 22:17N 41°28' E 009°46'724.4
2017-Aug-07 22:01N 41°21' E 009°45'1724.0
2017-Aug-07 21:18N 41°04' E 009°43'10 3.2
2017-Aug-07 18:00N 40°55' E 009°35'1122.1
2017-Aug-07 17:30N 41°04' E 009°44'6726.5
2017-Aug-07 14:59N 42°09' E 010°06'1626.3
2017-Aug-07 14:23N 42°24' E 010°12'1026.6
2017-Aug-07 14:00N 42°32' E 010°20'1326.3
2017-Aug-07 13:30N 42°43' E 010°30'1325.5
2017-Aug-07 12:59N 42°56' E 010°34'1 1.5
2017-Aug-07 12:30N 42°56' E 010°33'0 0.0
2017-Aug-07 11:52N 42°56' E 010°33'1 2.6
2017-Aug-07 11:31N 42°55' E 010°34'1224.3
2017-Aug-07 11:01N 42°43' E 010°30'1426.6
2017-Aug-07 10:30N 42°32' E 010°20'1326.5
2017-Aug-07 10:00N 42°21' E 010°10'8915.7
2017-Aug-07 04:21N 40°56' E 009°37'1223.1
2017-Aug-07 03:51N 41°07' E 009°43'6426.6
2017-Aug-07 01:26N 42°10' E 009°53'2826.7
2017-Aug-07 00:24N 42°38' E 009°58'1026.6
2017-Aug-07 00:00N 42°48' E 010°00'1326.5
2017-Aug-06 23:31N 43°01' E 010°04'1326.7
2017-Aug-06 23:01N 43°14' E 010°07'1326.6
2017-Aug-06 22:31N 43°27' E 010°11'815.1
2017-Aug-06 22:01N 43°33' E 010°17'0 0.8
2017-Aug-06 21:29N 43°33' E 010°18'0 0.0
2017-Aug-06 20:58N 43°33' E 010°18'0 0.1
2017-Aug-06 20:31N 43°33' E 010°18'611.3
2017-Aug-06 20:01N 43°29' E 010°13'1326.3
2017-Aug-06 19:30N 43°16' E 010°09'1326.4
2017-Aug-06 19:01N 43°03' E 010°06'1326.5
2017-Aug-06 18:31N 42°50' E 010°02'1326.6
2017-Aug-06 18:01N 42°37' E 009°58'1326.6
2017-Aug-06 17:30N 42°24' E 009°56'1426.7
2017-Aug-06 16:59N 42°10' E 009°54'1326.6
2017-Aug-06 16:30N 41°57' E 009°52'1926.6
2017-Aug-06 15:48N 41°39' E 009°49'2126.3
2017-Aug-06 14:59N 41°17' E 009°45'1326.2
2017-Aug-06 14:30N 41°05' E 009°43'  

Dump ship's entire track history